createdAt,value
2018-03-25T00:00:11.013Z,1.40
2018-03-25T00:02:45.633Z,1.60
2018-03-25T00:05:35.412Z,2.00
2018-03-25T00:08:10.999Z,1.57
2018-03-25T00:10:46.643Z,1.70
2018-03-25T00:13:22.215Z,1.37
2018-03-25T00:15:57.738Z,1.20
2018-03-25T00:18:33.191Z,1.30
2018-03-25T00:21:08.694Z,1.97
2018-03-25T00:23:45.064Z,2.33
2018-03-25T00:26:20.801Z,4.50
2018-03-25T00:28:55.835Z,1.70
2018-03-25T00:31:30.539Z,2.23
2018-03-25T00:34:05.524Z,1.57
2018-03-25T00:36:40.747Z,1.70
2018-03-25T00:39:16.404Z,1.30
2018-03-25T00:41:51.529Z,1.50
2018-03-25T00:44:27.086Z,1.33
2018-03-25T00:47:03.288Z,1.50
2018-03-25T00:49:38.369Z,1.47
2018-03-25T00:52:13.520Z,1.60
2018-03-25T00:54:48.286Z,1.30
2018-03-25T00:57:23.591Z,1.53
2018-03-25T00:59:58.931Z,1.67
2018-03-25T01:02:34.132Z,2.40
2018-03-25T01:05:10.374Z,1.73
2018-03-25T01:07:45.473Z,1.13
2018-03-25T01:10:21.328Z,1.73
2018-03-25T01:12:56.951Z,1.57
2018-03-25T01:15:44.521Z,1.30
2018-03-25T01:18:22.957Z,1.40
2018-03-25T01:20:57.614Z,1.53
2018-03-25T01:23:33.210Z,1.43
2018-03-25T01:26:08.581Z,1.70
2018-03-25T01:28:43.459Z,1.50
2018-03-25T01:31:19.048Z,1.20
2018-03-25T01:33:54.037Z,1.73
2018-03-25T01:36:29.797Z,1.90
2018-03-25T01:39:04.746Z,1.70
2018-03-25T01:41:40.082Z,2.57
2018-03-25T01:44:15.160Z,1.40
2018-03-25T01:46:50.667Z,1.97
2018-03-25T01:49:25.792Z,1.90
2018-03-25T01:52:00.555Z,1.40
2018-03-25T01:54:35.290Z,1.40
2018-03-25T01:57:10.992Z,1.50
2018-03-25T01:59:46.138Z,1.27
2018-03-25T02:02:20.843Z,1.57
2018-03-25T02:04:55.722Z,1.30
2018-03-25T02:07:30.839Z,4.10
2018-03-25T02:10:06.306Z,1.50
2018-03-25T02:12:41.248Z,1.23
2018-03-25T02:15:16.092Z,1.30
2018-03-25T02:17:51.182Z,1.30
2018-03-25T02:20:26.157Z,1.97
2018-03-25T02:23:01.090Z,1.33
2018-03-25T02:25:35.972Z,1.60
2018-03-25T02:28:11.013Z,1.53
2018-03-25T02:30:46.210Z,1.60
2018-03-25T02:33:21.693Z,1.67
2018-03-25T02:35:56.722Z,1.90
2018-03-25T02:38:32.386Z,1.30
2018-03-25T02:41:07.158Z,1.40
2018-03-25T02:43:42.767Z,1.20
2018-03-25T02:46:17.758Z,1.20
2018-03-25T02:48:52.796Z,1.50
2018-03-25T02:51:28.054Z,1.47
2018-03-25T02:54:02.686Z,1.23
2018-03-25T02:56:38.357Z,1.17
2018-03-25T02:59:13.212Z,1.53
2018-03-25T03:01:48.563Z,1.30
2018-03-25T03:04:24.190Z,1.20
2018-03-25T03:07:00.132Z,1.20
2018-03-25T03:09:35.570Z,1.33
2018-03-25T03:12:10.967Z,1.30
2018-03-25T03:14:45.706Z,1.20
2018-03-25T03:17:20.732Z,1.50
2018-03-25T03:19:56.258Z,1.60
2018-03-25T03:22:31.416Z,1.30
2018-03-25T03:25:07.087Z,1.20
2018-03-25T03:27:42.067Z,1.23
2018-03-25T03:30:17.905Z,1.43
2018-03-25T03:32:53.347Z,1.83
2018-03-25T03:35:28.792Z,1.63
2018-03-25T03:38:03.619Z,1.30
2018-03-25T03:40:38.860Z,1.30
2018-03-25T03:43:13.892Z,2.00
2018-03-25T03:45:49.850Z,1.43
2018-03-25T03:48:25.450Z,1.60
2018-03-25T03:51:01.461Z,1.70
2018-03-25T03:53:37.316Z,1.77
2018-03-25T03:56:12.622Z,2.07
2018-03-25T03:58:47.469Z,1.77
2018-03-25T04:01:22.420Z,1.23
2018-03-25T04:03:58.445Z,1.63
2018-03-25T04:06:33.713Z,1.93
2018-03-25T04:09:09.384Z,1.37
2018-03-25T04:11:44.341Z,2.07
2018-03-25T04:14:19.877Z,1.70
2018-03-25T04:16:55.394Z,1.47
2018-03-25T04:19:30.982Z,1.60
2018-03-25T04:22:06.077Z,2.07
2018-03-25T04:24:41.194Z,1.80
2018-03-25T04:27:17.596Z,1.70
2018-03-25T04:29:52.626Z,2.03
2018-03-25T04:32:27.679Z,1.93
2018-03-25T04:35:03.316Z,1.70
2018-03-25T04:37:38.641Z,1.30
2018-03-25T04:40:13.591Z,1.47
2018-03-25T04:42:50.098Z,1.53
2018-03-25T04:45:25.690Z,1.37
2018-03-25T04:48:00.732Z,1.70
2018-03-25T04:50:35.759Z,1.80
2018-03-25T04:53:11.004Z,1.73
2018-03-25T04:55:46.035Z,1.40
2018-03-25T04:58:21.398Z,1.40
2018-03-25T05:00:57.336Z,1.60
2018-03-25T05:03:32.942Z,2.87
2018-03-25T05:06:08.539Z,1.60
2018-03-25T05:08:43.611Z,2.00
2018-03-25T05:11:19.325Z,1.40
2018-03-25T05:13:54.970Z,1.67
2018-03-25T05:16:30.004Z,1.67
2018-03-25T05:19:05.812Z,1.37
2018-03-25T05:21:40.704Z,1.70
2018-03-25T05:24:16.335Z,1.77
2018-03-25T05:26:51.773Z,1.60
2018-03-25T05:29:27.263Z,1.50
2018-03-25T05:32:03.023Z,1.70
2018-03-25T05:34:38.471Z,1.43
2018-03-25T05:37:13.973Z,1.50
2018-03-25T05:39:49.417Z,1.53
2018-03-25T05:42:25.656Z,1.20
2018-03-25T05:45:00.725Z,1.47
2018-03-25T05:47:35.553Z,1.80
2018-03-25T05:50:11.552Z,1.70
2018-03-25T05:52:46.414Z,1.50
2018-03-25T05:55:22.451Z,1.33
2018-03-25T05:57:58.386Z,1.60
2018-03-25T06:00:34.099Z,1.33
2018-03-25T06:03:09.752Z,1.40
2018-03-25T06:05:45.399Z,1.57
2018-03-25T06:08:20.146Z,1.57
2018-03-25T06:10:55.098Z,1.70
2018-03-25T06:13:30.064Z,1.77
2018-03-25T06:16:05.405Z,1.50
2018-03-25T06:18:41.171Z,1.60
2018-03-25T06:21:17.080Z,1.67
2018-03-25T06:23:52.840Z,1.70
2018-03-25T06:26:28.572Z,1.60
2018-03-25T06:29:04.405Z,1.37
2018-03-25T06:31:39.443Z,1.93
2018-03-25T06:34:14.271Z,1.87
2018-03-25T06:36:50.737Z,1.87
2018-03-25T06:39:27.016Z,1.83
2018-03-25T06:42:02.368Z,1.83
2018-03-25T06:44:37.385Z,1.80
2018-03-25T06:47:12.613Z,1.73
2018-03-25T06:49:49.287Z,1.70
2018-03-25T06:52:24.295Z,2.00
2018-03-25T06:54:59.155Z,1.40
2018-03-25T06:57:34.084Z,2.27
2018-03-25T07:00:08.921Z,2.20
2018-03-25T07:02:44.603Z,1.70
2018-03-25T07:05:19.362Z,1.50
2018-03-25T07:07:54.332Z,1.60
2018-03-25T07:10:29.156Z,2.13
2018-03-25T07:13:04.093Z,2.33
2018-03-25T07:15:40.360Z,1.80
2018-03-25T07:18:17.437Z,2.40
2018-03-25T07:20:53.192Z,1.70
2018-03-25T07:23:27.915Z,2.50
2018-03-25T07:26:03.161Z,1.80
2018-03-25T07:28:38.638Z,1.73
2018-03-25T07:31:13.819Z,2.03
2018-03-25T07:33:48.534Z,3.57
2018-03-25T07:36:23.418Z,1.50
2018-03-25T07:38:58.948Z,1.80
2018-03-25T07:41:34.088Z,3.90
2018-03-25T07:44:09.119Z,1.50
2018-03-25T07:46:44.155Z,2.10
2018-03-25T07:49:19.737Z,1.93
2018-03-25T07:51:54.665Z,2.07
2018-03-25T07:54:29.672Z,1.70
2018-03-25T07:57:04.606Z,1.80
2018-03-25T07:59:40.767Z,2.00
2018-03-25T08:02:16.212Z,1.80
2018-03-25T08:04:51.656Z,2.40
2018-03-25T08:07:26.437Z,1.90
2018-03-25T08:10:02.447Z,1.80
2018-03-25T08:12:37.618Z,2.63
2018-03-25T08:15:13.040Z,2.37
2018-03-25T08:17:48.165Z,1.70
2018-03-25T08:20:22.942Z,1.87
2018-03-25T08:22:59.054Z,1.77
2018-03-25T08:25:34.496Z,2.40
2018-03-25T08:28:10.762Z,2.77
2018-03-25T08:30:45.800Z,2.17
2018-03-25T08:33:21.243Z,2.10
2018-03-25T08:35:57.648Z,2.10
2018-03-25T08:38:32.743Z,3.00
2018-03-25T08:41:08.270Z,2.50
2018-03-25T08:43:44.451Z,1.93
2018-03-25T08:46:19.594Z,1.80
2018-03-25T08:48:54.545Z,2.70
2018-03-25T08:51:29.553Z,2.80
2018-03-25T08:54:04.314Z,2.67
2018-03-25T08:56:39.264Z,2.50
2018-03-25T08:59:14.424Z,1.60
2018-03-25T09:01:50.311Z,2.73
2018-03-25T09:04:25.903Z,1.60
2018-03-25T09:07:01.307Z,2.27
2018-03-25T09:09:36.334Z,1.70
2018-03-25T09:12:11.369Z,1.53
2018-03-25T09:14:46.619Z,1.97
2018-03-25T09:17:22.221Z,1.63
2018-03-25T09:19:57.647Z,1.80
2018-03-25T09:22:33.164Z,2.00
2018-03-25T09:25:08.582Z,2.90
2018-03-25T09:27:43.278Z,2.33
2018-03-25T09:30:18.227Z,1.80
2018-03-25T09:32:53.122Z,2.27
2018-03-25T09:35:28.345Z,1.70
2018-03-25T09:38:03.599Z,1.90
2018-03-25T09:40:38.803Z,1.60
2018-03-25T09:43:14.252Z,2.10
2018-03-25T09:45:49.927Z,2.13
2018-03-25T09:48:25.380Z,3.80
2018-03-25T09:51:00.596Z,2.47
2018-03-25T09:53:35.196Z,2.43
2018-03-25T09:56:10.418Z,1.73
2018-03-25T09:58:45.410Z,2.03
2018-03-25T10:01:26.049Z,2.40
2018-03-25T10:04:01.639Z,1.80
2018-03-25T10:06:36.687Z,2.17
2018-03-25T10:09:12.391Z,2.13
2018-03-25T10:11:48.031Z,1.83
2018-03-25T10:14:23.068Z,2.13
2018-03-25T10:16:58.102Z,2.40
2018-03-25T10:19:33.752Z,3.10
2018-03-25T10:22:08.792Z,2.10
2018-03-25T10:24:43.963Z,2.47
2018-03-25T10:27:20.291Z,2.10
2018-03-25T10:29:55.676Z,2.40
2018-03-25T10:32:30.564Z,2.83
2018-03-25T10:35:05.804Z,3.90
2018-03-25T10:37:42.134Z,1.90
2018-03-25T10:40:18.026Z,1.87
2018-03-25T10:42:53.885Z,2.07
2018-03-25T10:45:29.118Z,3.67
2018-03-25T10:48:03.948Z,2.13
2018-03-25T10:50:38.929Z,1.90
2018-03-25T10:53:14.536Z,4.10
2018-03-25T10:55:49.567Z,1.80
2018-03-25T10:58:24.601Z,2.10
2018-03-25T11:01:00.258Z,2.43
2018-03-25T11:03:35.331Z,2.20
2018-03-25T11:06:15.314Z,1.80
2018-03-25T11:08:50.578Z,2.20
2018-03-25T11:11:25.919Z,2.00
2018-03-25T11:14:01.682Z,2.70
2018-03-25T11:16:37.483Z,2.63
2018-03-25T11:19:13.313Z,1.93
2018-03-25T11:21:49.032Z,2.97
2018-03-25T11:24:24.068Z,2.97
2018-03-25T11:26:59.101Z,2.27
2018-03-25T11:29:35.067Z,2.50
2018-03-25T11:32:10.706Z,2.53
2018-03-25T11:34:45.747Z,3.57
2018-03-25T11:37:20.680Z,4.80
2018-03-25T11:39:55.915Z,2.87
2018-03-25T11:42:31.154Z,2.80
2018-03-25T11:45:06.803Z,3.07
2018-03-25T11:47:41.760Z,3.20
2018-03-25T11:50:18.423Z,3.17
2018-03-25T11:52:54.509Z,2.50
2018-03-25T11:55:30.128Z,3.70
2018-03-25T11:58:06.587Z,3.30
2018-03-25T12:00:42.050Z,4.90
2018-03-25T12:03:17.478Z,3.60
2018-03-25T12:05:53.286Z,3.40
2018-03-25T12:08:28.985Z,4.10
2018-03-25T12:11:04.840Z,4.00
2018-03-25T12:13:40.508Z,3.43
2018-03-25T12:16:15.727Z,3.80
2018-03-25T12:18:50.810Z,3.97
2018-03-25T12:21:26.616Z,2.60
2018-03-25T12:24:02.159Z,3.30
2018-03-25T12:26:36.978Z,4.17
2018-03-25T12:29:12.444Z,4.40
2018-03-25T12:31:47.275Z,3.53
2018-03-25T12:34:22.505Z,3.93
2018-03-25T12:36:57.539Z,3.60
2018-03-25T12:39:32.781Z,3.97
2018-03-25T12:42:07.815Z,4.00
2018-03-25T12:44:43.113Z,3.40
2018-03-25T12:47:19.011Z,4.67
2018-03-25T12:49:54.817Z,4.60
2018-03-25T12:52:29.606Z,4.93
2018-03-25T12:55:04.891Z,3.50
2018-03-25T12:57:40.689Z,3.40
2018-03-25T13:00:15.518Z,4.60
2018-03-25T13:02:50.568Z,3.60
2018-03-25T13:05:25.388Z,6.07
2018-03-25T13:08:00.216Z,3.20
2018-03-25T13:10:35.052Z,3.53
2018-03-25T13:13:10.024Z,3.33
2018-03-25T13:15:45.933Z,4.47
2018-03-25T13:18:20.968Z,4.60
2018-03-25T13:20:56.004Z,3.50
2018-03-25T13:23:31.994Z,5.10
2018-03-25T13:26:07.305Z,3.43
2018-03-25T13:28:42.135Z,4.60
2018-03-25T13:31:17.045Z,3.97
2018-03-25T13:33:53.226Z,4.47
2018-03-25T13:36:28.059Z,3.50
2018-03-25T13:39:03.308Z,3.90
2018-03-25T13:41:39.152Z,3.60
2018-03-25T13:44:14.596Z,3.00
2018-03-25T13:46:50.189Z,3.87
2018-03-25T13:49:25.693Z,3.53
2018-03-25T13:52:00.725Z,3.70
2018-03-25T13:54:36.170Z,2.67
2018-03-25T13:57:11.001Z,2.93
2018-03-25T13:59:45.933Z,4.47
2018-03-25T14:02:21.589Z,3.03
2018-03-25T14:04:56.550Z,3.10
2018-03-25T14:07:31.593Z,3.70
2018-03-25T14:10:07.510Z,2.63
2018-03-25T14:12:42.339Z,2.70
2018-03-25T14:15:17.309Z,3.50
2018-03-25T14:17:52.816Z,4.00
2018-03-25T14:20:27.866Z,2.90
2018-03-25T14:23:03.565Z,2.10
2018-03-25T14:25:39.934Z,2.50
2018-03-25T14:28:15.417Z,2.90
2018-03-25T14:30:50.247Z,3.00
2018-03-25T14:33:25.384Z,3.70
2018-03-25T14:36:00.624Z,4.93
2018-03-25T14:38:35.867Z,4.10
2018-03-25T14:41:11.104Z,4.23
2018-03-25T14:43:46.695Z,4.20
2018-03-25T14:46:22.496Z,3.30
2018-03-25T14:48:58.461Z,3.47
2018-03-25T14:51:33.336Z,3.67
2018-03-25T14:54:09.564Z,3.50
2018-03-25T14:56:45.208Z,3.20
2018-03-25T14:59:20.035Z,3.30
2018-03-25T15:01:55.242Z,3.30
2018-03-25T15:04:30.516Z,3.33
2018-03-25T15:07:06.777Z,3.60
2018-03-25T15:09:42.018Z,3.80
2018-03-25T15:12:17.275Z,3.27
2018-03-25T15:14:53.114Z,6.00
2018-03-25T15:17:28.761Z,3.73
2018-03-25T15:20:04.001Z,3.93
2018-03-25T15:22:38.835Z,3.43
2018-03-25T15:25:13.865Z,3.23
2018-03-25T15:27:49.311Z,4.33
2018-03-25T15:30:24.554Z,4.33
2018-03-25T15:32:59.735Z,3.30
2018-03-25T15:35:34.826Z,4.27
2018-03-25T15:38:10.535Z,3.23
2018-03-25T15:40:45.715Z,3.20
2018-03-25T15:43:20.697Z,3.80
2018-03-25T15:45:56.298Z,4.20
2018-03-25T15:48:31.134Z,3.57
2018-03-25T15:51:06.918Z,3.37
2018-03-25T15:53:43.351Z,3.40
2018-03-25T15:56:18.286Z,3.00
2018-03-25T15:58:53.221Z,2.97
2018-03-25T16:01:28.867Z,3.80
2018-03-25T16:04:04.721Z,3.13
2018-03-25T16:06:40.374Z,4.37
2018-03-25T16:09:15.300Z,3.60
2018-03-25T16:11:50.337Z,4.40
2018-03-25T16:14:25.986Z,4.23
2018-03-25T16:17:00.817Z,5.20
2018-03-25T16:19:36.877Z,3.83
2018-03-25T16:22:11.921Z,4.00
2018-03-25T16:24:46.949Z,4.50
2018-03-25T16:27:21.776Z,4.43
2018-03-25T16:29:57.837Z,4.57
2018-03-25T16:32:33.076Z,4.23
2018-03-25T16:35:07.907Z,4.00
2018-03-25T16:37:43.562Z,4.43
2018-03-25T16:40:18.383Z,4.50
2018-03-25T16:42:54.859Z,4.83
2018-03-25T16:45:29.890Z,5.10
2018-03-25T16:48:04.658Z,4.97
2018-03-25T16:50:39.754Z,4.90
2018-03-25T16:53:14.788Z,4.13
2018-03-25T16:55:50.031Z,3.43
2018-03-25T16:58:25.001Z,5.43
2018-03-25T17:01:00.301Z,4.23
2018-03-25T17:03:36.160Z,4.37
2018-03-25T17:06:12.040Z,5.80
2018-03-25T17:08:47.665Z,3.60
2018-03-25T17:11:23.208Z,3.80
2018-03-25T17:13:58.899Z,4.50
2018-03-25T17:16:34.813Z,4.63
2018-03-25T17:19:09.853Z,3.20
2018-03-25T17:21:45.100Z,3.60
2018-03-25T17:24:20.950Z,3.83
2018-03-25T17:26:55.827Z,5.00
2018-03-25T17:29:30.720Z,3.10
2018-03-25T17:32:05.747Z,3.97
2018-03-25T17:34:40.572Z,3.60
2018-03-25T17:37:15.424Z,2.97
2018-03-25T17:39:51.048Z,3.70
2018-03-25T17:42:26.699Z,2.70
2018-03-25T17:45:02.556Z,3.67
2018-03-25T17:47:38.409Z,3.33
2018-03-25T17:50:14.737Z,3.63
2018-03-25T17:52:50.631Z,4.37
2018-03-25T17:55:25.356Z,3.47
2018-03-25T17:58:00.532Z,3.70
2018-03-25T18:00:36.467Z,6.10
2018-03-25T18:03:12.001Z,4.20
2018-03-25T18:05:47.651Z,5.50
2018-03-25T18:08:22.687Z,4.17
2018-03-25T18:10:57.516Z,4.10
2018-03-25T18:13:33.365Z,5.20
2018-03-25T18:16:10.249Z,5.53
2018-03-25T18:18:45.505Z,3.87
2018-03-25T18:21:21.293Z,5.37
2018-03-25T18:23:57.135Z,3.90
2018-03-25T18:26:32.841Z,3.50
2018-03-25T18:29:07.683Z,3.50
2018-03-25T18:31:43.322Z,4.77
2018-03-25T18:34:18.772Z,3.67
2018-03-25T18:36:55.448Z,3.33
2018-03-25T18:39:30.886Z,4.07
2018-03-25T18:42:06.778Z,2.50
2018-03-25T18:44:42.593Z,3.33
2018-03-25T18:47:18.469Z,3.07
2018-03-25T18:49:54.103Z,3.93
2018-03-25T18:52:29.137Z,2.60
2018-03-25T18:55:04.167Z,6.20
2018-03-25T18:57:39.212Z,5.03
2018-03-25T19:00:14.241Z,3.60
2018-03-25T19:02:50.095Z,3.10
2018-03-25T19:05:25.950Z,3.37
2018-03-25T19:08:00.783Z,2.60
2018-03-25T19:10:36.632Z,4.33
2018-03-25T19:13:12.285Z,3.53
2018-03-25T19:15:47.520Z,3.57
2018-03-25T19:18:23.997Z,2.70
2018-03-25T19:20:59.236Z,2.83
2018-03-25T19:23:34.944Z,3.10
2018-03-25T19:26:10.636Z,2.50
2018-03-25T19:28:47.098Z,2.30
2018-03-25T19:31:22.359Z,2.57
2018-03-25T19:33:58.193Z,3.20
2018-03-25T19:36:33.434Z,3.03
2018-03-25T19:39:09.231Z,2.60
2018-03-25T19:41:44.942Z,3.60
2018-03-25T19:44:20.076Z,3.83
2018-03-25T19:46:55.930Z,7.33
2018-03-25T19:49:31.576Z,4.07
2018-03-25T19:52:07.434Z,3.20
2018-03-25T19:54:42.262Z,2.93
2018-03-25T19:57:17.510Z,2.87
2018-03-25T19:59:52.332Z,3.20
2018-03-25T20:02:27.096Z,3.37
2018-03-25T20:05:02.861Z,3.17
2018-03-25T20:07:37.751Z,2.83
2018-03-25T20:10:12.782Z,3.00
2018-03-25T20:12:47.978Z,3.50
2018-03-25T20:15:23.875Z,3.63
2018-03-25T20:17:59.526Z,2.77
2018-03-25T20:20:35.789Z,3.13
2018-03-25T20:23:10.824Z,2.83
2018-03-25T20:25:46.268Z,3.50
2018-03-25T20:28:21.713Z,3.07
2018-03-25T20:30:56.747Z,2.80
2018-03-25T20:33:31.985Z,3.43
2018-03-25T20:36:07.026Z,3.17
2018-03-25T20:38:42.820Z,2.83
2018-03-25T20:41:18.127Z,3.20
2018-03-25T20:43:53.152Z,2.97
2018-03-25T20:46:28.537Z,3.17
2018-03-25T20:49:04.464Z,4.00
2018-03-25T20:51:39.903Z,3.20
2018-03-25T20:54:15.349Z,3.10
2018-03-25T20:56:50.992Z,2.77
2018-03-25T20:59:26.852Z,3.13
2018-03-25T21:02:03.518Z,2.63
2018-03-25T21:04:38.960Z,2.60
2018-03-25T21:07:14.161Z,2.63
2018-03-25T21:09:49.442Z,3.47
2018-03-25T21:12:24.686Z,2.40
2018-03-25T21:15:00.097Z,2.70
2018-03-25T21:17:35.785Z,3.40
2018-03-25T21:20:11.021Z,3.23
2018-03-25T21:22:46.665Z,2.53
2018-03-25T21:25:22.317Z,2.43
2018-03-25T21:27:58.033Z,3.60
2018-03-25T21:30:33.627Z,3.23
2018-03-25T21:33:08.856Z,3.57
2018-03-25T21:35:45.329Z,2.97
2018-03-25T21:38:21.381Z,2.10
2018-03-25T21:40:57.450Z,2.80
2018-03-25T21:43:33.502Z,3.03
2018-03-25T21:46:08.592Z,2.30
2018-03-25T21:48:44.186Z,3.30
2018-03-25T21:51:20.860Z,2.40
2018-03-25T21:53:55.893Z,3.23
2018-03-25T21:56:31.701Z,3.30
2018-03-25T21:59:06.783Z,2.67
2018-03-25T22:01:43.413Z,2.53
2018-03-25T22:04:18.698Z,4.80
2018-03-25T22:06:55.165Z,2.57
2018-03-25T22:09:44.954Z,2.77
2018-03-25T22:12:20.091Z,2.50
2018-03-25T22:14:55.629Z,2.10
2018-03-25T22:17:30.667Z,1.70
2018-03-25T22:20:06.519Z,1.90
2018-03-25T22:22:41.764Z,1.40
2018-03-25T22:25:18.435Z,1.90
2018-03-25T22:27:54.490Z,2.20
2018-03-25T22:30:29.703Z,1.80
2018-03-25T22:33:04.769Z,2.30
2018-03-25T22:35:40.625Z,1.93
2018-03-25T22:38:17.915Z,2.23
2018-03-25T22:40:53.966Z,1.70
2018-03-25T22:43:29.013Z,1.80
2018-03-25T22:46:04.795Z,2.10
2018-03-25T22:48:40.561Z,2.53
2018-03-25T22:51:17.179Z,2.07
2018-03-25T22:53:52.597Z,2.10
2018-03-25T22:56:28.697Z,1.90
2018-03-25T22:59:04.132Z,1.97
2018-03-25T23:01:39.980Z,1.87
2018-03-25T23:04:16.672Z,2.20
2018-03-25T23:06:52.102Z,2.20
2018-03-25T23:09:27.433Z,1.77
2018-03-25T23:12:03.812Z,2.13
2018-03-25T23:14:38.859Z,1.80
2018-03-25T23:17:15.525Z,1.73
2018-03-25T23:19:52.189Z,1.67
2018-03-25T23:22:27.223Z,2.37
2018-03-25T23:25:02.055Z,1.90
2018-03-25T23:27:36.994Z,2.03
2018-03-25T23:30:12.128Z,2.43
2018-03-25T23:32:48.798Z,2.40
2018-03-25T23:35:24.038Z,2.00
2018-03-25T23:37:59.841Z,2.27
2018-03-25T23:40:34.874Z,2.53
2018-03-25T23:43:10.066Z,2.77
2018-03-25T23:45:45.511Z,3.00
2018-03-25T23:48:21.161Z,2.10
2018-03-25T23:50:57.631Z,2.23
2018-03-25T23:53:32.458Z,2.00
2018-03-25T23:56:08.116Z,2.23
2018-03-25T23:58:44.285Z,2.30
